.
WxDataArchive / Data Records for 2009-08-01
2009-07-31 August 2009 2009-08-02

Data Records for Saturday, 01 August 2009

Time	Temp	Chill	HIndex	Humid	Dewpt	 Wind 	HiWind	WindDir	Rain 	Barom 
-----	----	-----	------	-----	-----	------	------	-------	-----	----- 
00:00	62.4	62.4	62.4	83	57.2	0	0	---	0.00	30.020 
00:05	62.4	62.4	62.4	83	57.2	0	0	---	0.00	30.020 
00:10	62.4	62.4	62.4	84	57.5	0	0	---	0.00	30.020 
00:15	62.3	62.3	62.3	84	57.4	0	0	---	0.00	30.019 
00:20	62.1	62.1	62.1	84	57.2	0	0	---	0.00	30.019 
00:25	62.0	62.0	62.0	84	57.1	0	0	---	0.00	30.019 
00:30	62.0	62.0	62.0	84	57.1	0	0	---	0.00	30.016 
00:35	61.8	61.8	61.8	85	57.2	0	0	---	0.00	30.016 
00:40	61.8	61.8	61.8	85	57.2	0	0	---	0.00	30.016 
00:45	61.6	61.6	61.6	86	57.4	0	0	---	0.00	30.019 
00:50	61.6	61.6	61.6	86	57.4	0	0	---	0.00	30.019 
00:55	61.6	61.6	61.6	86	57.4	0	0	---	0.00	30.019 
01:00	61.5	61.5	61.5	87	57.6	0	0	---	0.00	30.020 
01:05	61.5	61.5	61.5	87	57.6	0	0	---	0.00	30.020 
01:10	61.5	61.5	61.5	87	57.6	0	0	---	0.00	30.020 
01:15	61.6	61.6	61.6	87	57.7	0	0	---	0.00	30.021 
01:20	61.5	61.5	61.5	87	57.6	0	0	---	0.00	30.021 
01:25	61.5	61.5	61.5	88	57.9	0	0	---	0.00	30.021 
01:30	61.3	61.3	61.3	88	57.7	0	0	---	0.00	30.028 
01:35	61.3	61.3	61.3	88	57.7	0	0	---	0.00	30.028 
01:40	61.3	61.3	61.3	88	57.7	0	0	---	0.00	30.028 
01:45	61.5	61.5	61.5	89	58.2	0	0	---	0.00	30.029 
01:50	61.6	61.6	61.6	89	58.3	0	0	---	0.00	30.029 
01:55	61.8	61.8	61.8	89	58.5	0	0	---	0.00	30.029 
02:00	61.8	61.8	61.8	89	58.5	0	0	---	0.00	30.025 
02:05	62.0	62.0	62.0	89	58.7	0	0	---	0.00	30.025 
02:10	62.0	62.0	62.0	88	58.4	0	0	---	0.00	30.025 
02:15	61.8	61.8	61.8	88	58.2	0	0	---	0.00	30.021 
02:20	61.8	61.8	61.8	88	58.2	0	0	---	0.00	30.021 
02:25	61.8	61.8	61.8	89	58.5	0	0	---	0.00	30.021 
02:30	61.8	61.8	61.8	89	58.5	0	0	---	0.00	30.023 
02:35	61.8	61.8	61.8	89	58.5	0	0	---	0.00	30.023 
02:40	61.6	61.6	61.6	89	58.3	0	0	---	0.00	30.023 
02:45	61.6	61.6	61.6	89	58.3	0	0	---	0.00	30.026 
02:50	61.6	61.6	61.6	89	58.3	0	0	---	0.00	30.026 
02:55	61.8	61.8	61.8	89	58.5	0	0	---	0.00	30.026 
03:00	61.6	61.6	61.6	89	58.3	0	0	---	0.00	30.028 
03:05	61.6	61.6	61.6	89	58.3	0	0	---	0.00	30.028 
03:10	61.6	61.6	61.6	89	58.3	0	0	---	0.00	30.028 
03:15	61.6	61.6	61.6	89	58.3	0	0	---	0.00	30.021 
03:20	61.6	61.6	61.6	89	58.3	0	0	---	0.00	30.021 
03:25	61.5	61.5	61.5	89	58.2	0	0	---	0.00	30.021 
03:30	61.3	61.3	61.3	89	58.0	0	0	---	0.00	30.018 
03:35	61.2	61.2	61.2	88	57.6	0	0	---	0.00	30.018 
03:40	61.2	61.2	61.2	89	57.9	0	0	---	0.00	30.018 
03:45	61.0	61.0	61.0	89	57.7	0	0	---	0.00	30.019 
03:50	60.9	60.9	60.9	89	57.6	0	0	---	0.00	30.019 
03:55	60.7	60.7	60.7	90	57.7	0	0	---	0.00	30.019 
04:00	60.5	60.5	60.5	90	57.5	0	0	---	0.00	30.020 
04:05	60.5	60.5	60.5	90	57.5	0	0	---	0.00	30.020 
04:10	60.4	60.4	60.4	90	57.4	0	0	---	0.00	30.020 
04:15	60.2	60.2	60.2	90	57.3	0	0	---	0.00	30.019 
04:20	59.9	59.9	59.9	90	57.0	0	0	---	0.00	30.019 
04:25	59.9	59.9	59.9	91	57.3	0	0	---	0.00	30.019 
04:30	59.8	59.8	59.8	91	57.2	0	0	---	0.00	30.020 
04:35	59.6	59.6	59.6	91	57.0	0	0	---	0.00	30.020 
04:40	59.5	59.5	59.5	91	56.9	0	0	---	0.00	30.020 
04:45	59.5	59.5	59.5	91	56.9	0	0	---	0.00	30.020 
04:50	59.3	59.3	59.3	92	57.0	0	0	---	0.00	30.020 
04:55	59.2	59.2	59.2	92	56.9	0	0	---	0.00	30.020 
05:00	59.0	59.0	59.0	92	56.7	0	0	---	0.00	30.008 
05:05	58.9	58.9	58.9	92	56.6	0	0	---	0.00	30.008 
05:10	58.7	58.7	58.7	92	56.4	0	0	---	0.00	30.008 
05:15	58.6	58.6	58.6	92	56.3	0	0	---	0.00	30.001 
05:20	58.6	58.6	58.6	92	56.3	0	0	---	0.00	30.001 
05:25	58.6	58.6	58.6	92	56.3	0	0	---	0.00	30.001 
05:30	58.7	58.7	58.7	93	56.7	0	0	---	0.00	30.003 
05:35	58.7	58.7	58.7	93	56.7	0	0	---	0.00	30.003 
05:40	58.7	58.7	58.7	93	56.7	0	0	---	0.00	30.003 
05:45	58.6	58.6	58.6	93	56.6	0	0	---	0.00	30.001 
05:50	58.4	58.4	58.4	93	56.4	0	0	---	0.00	30.001 
05:55	58.4	58.4	58.4	93	56.4	0	0	---	0.00	30.001 
06:00	58.4	58.4	58.4	93	56.4	0	0	---	0.00	29.990 
06:05	58.4	58.4	58.4	93	56.4	0	0	---	0.00	29.990 
06:10	58.4	58.4	58.4	94	56.7	0	0	---	0.00	29.990 
06:15	58.3	58.3	58.3	93	56.3	0	0	---	0.00	29.990 
06:20	58.1	58.1	58.1	93	56.1	0	0	---	0.00	29.990 
06:25	58.0	58.0	58.0	94	56.3	0	0	---	0.00	29.990 
06:30	58.0	58.0	58.0	94	56.3	0	0	---	0.00	30.002 
06:35	58.0	58.0	58.0	94	56.3	0	0	---	0.00	30.002 
06:40	58.1	58.1	58.1	94	56.4	0	0	---	0.00	30.002 
06:45	58.4	58.4	58.4	94	56.7	0	1	292	0.00	30.005 
06:50	58.6	58.6	58.6	94	56.9	0	1	292	0.00	30.005 
06:55	58.9	58.9	58.9	94	57.2	0	1	292	0.00	30.005 
07:00	59.0	59.0	59.0	94	57.3	0	1	292	0.00	30.007 
07:05	59.2	59.2	59.2	94	57.5	0	0	---	0.00	30.007 
07:10	59.3	59.3	59.3	94	57.6	0	0	---	0.00	30.007 
07:15	59.3	59.3	59.3	94	57.6	0	0	---	0.00	30.009 
07:20	59.5	59.5	59.5	94	57.8	0	0	---	0.00	30.009 
07:25	59.5	59.5	59.5	93	57.5	0	0	---	0.00	30.009 
07:30	59.8	59.8	59.8	93	57.8	0	0	---	0.00	30.005 
07:35	60.1	60.1	60.1	93	58.1	0	0	---	0.00	30.005 
07:40	60.5	60.5	60.5	93	58.5	0	0	---	0.00	30.005 
07:45	61.0	61.0	61.0	92	58.7	0	0	---	0.00	30.004 
07:50	61.6	61.6	61.6	91	58.9	0	0	---	0.00	30.004 
07:55	62.3	62.3	62.3	90	59.3	0	0	---	0.00	30.004 
08:00	63.1	63.1	63.1	88	59.5	0	1	292	0.00	30.003 
08:05	64.0	64.0	64.0	86	59.7	0	1	292	0.00	30.003 
08:10	64.5	64.5	64.5	84	59.6	0	1	292	0.00	30.003 
08:15	65.2	65.2	65.2	82	59.6	0	1	292	0.00	30.007 
08:20	66.3	66.3	66.3	80	59.9	0	1	292	0.00	30.007 
08:25	67.3	67.3	67.3	76	59.5	0	1	292	0.00	30.007 
08:30	67.8	67.8	67.8	75	59.6	0	1	292	0.00	30.012 
08:35	68.3	68.3	68.3	74	59.7	0	1	292	0.00	30.012 
08:40	68.9	68.9	68.9	74	60.3	0	1	292	0.00	30.012 
08:45	69.1	69.1	69.1	71	59.3	0	1	292	0.00	30.009 
08:50	69.1	69.1	69.1	73	60.1	0	1	292	0.00	30.009 
08:55	69.4	69.4	69.4	73	60.4	0	1	292	0.00	30.009 
09:00	69.8	69.8	69.8	69	59.2	0	2	292	0.00	30.000 
09:05	70.3	70.3	70.3	69	59.6	0	2	292	0.00	30.000 
09:10	71.1	71.1	71.1	69	60.4	0	2	315	0.00	30.000 
09:15	71.5	71.5	71.5	67	60.0	0	4	248	0.00	30.006 
09:20	71.5	71.5	71.5	66	59.5	1	4	248	0.00	30.006 
09:25	71.3	71.3	71.3	66	59.3	1	2	0	0.00	30.006 
09:30	71.6	71.6	71.6	65	59.2	1	3	225	0.00	30.007 
09:35	72.0	72.0	72.0	65	59.6	1	3	292	0.00	30.007 
09:40	72.5	72.5	72.5	64	59.6	0	5	248	0.00	30.007 
09:45	72.5	72.5	72.5	65	60.0	1	4	270	0.00	30.003 
09:50	72.7	72.7	72.7	63	59.4	1	4	270	0.00	30.003 
09:55	72.3	72.3	72.3	64	59.4	1	4	90	0.00	30.003 
10:00	71.8	71.8	71.8	66	59.8	1	3	248	0.00	30.009 
10:05	71.5	71.5	71.5	67	60.0	0	1	248	0.00	30.009 
10:10	71.5	71.5	71.5	68	60.4	0	1	248	0.00	30.009 
10:15	72.1	72.1	72.1	66	60.1	1	3	248	0.00	30.017 
10:20	72.8	72.8	72.8	65	60.3	1	4	270	0.00	30.017 
10:25	73.9	73.9	73.9	66	61.8	1	3	270	0.00	30.017 
10:30	74.9	74.9	74.9	61	60.5	1	4	292	0.00	30.015 
10:35	75.6	75.6	77.7	61	61.2	1	4	248	0.00	30.015 
10:40	76.1	76.1	78.1	59	60.7	1	3	248	0.00	30.015 
10:45	76.5	76.5	78.4	54	58.6	2	5	248	0.00	30.009 
10:50	76.1	76.1	78.1	54	58.2	2	5	248	0.00	30.009 
10:55	76.0	76.0	78.1	55	58.6	2	4	248	0.00	30.009 
11:00	75.8	75.8	78.0	55	58.5	1	4	248	0.00	30.006 
11:05	76.3	76.3	78.2	58	60.4	1	3	248	0.00	30.006 
11:10	76.7	76.7	78.5	54	58.8	1	6	248	0.00	30.006 
11:15	76.7	76.7	78.5	52	57.7	3	6	270	0.00	30.004 
11:20	76.8	76.8	78.5	53	58.4	1	4	292	0.00	30.004 
11:25	77.2	77.2	78.7	50	57.1	2	10	270	0.00	30.004 
11:30	76.8	76.8	78.5	49	56.2	2	7	270	0.00	30.002 
11:35	76.7	76.7	78.4	51	57.2	1	5	292	0.00	30.002 
11:40	76.8	76.8	78.5	50	56.7	2	5	270	0.00	30.002 
11:45	76.7	76.7	78.4	50	56.6	2	5	270	0.00	30.002 
11:50	76.7	76.7	78.4	50	56.6	1	5	292	0.00	30.002 
11:55	76.5	76.5	78.3	51	57.0	1	4	292	0.00	30.002 
12:00	76.5	76.5	78.4	52	57.5	2	4	270	0.00	29.998 
12:05	76.5	76.5	78.4	52	57.5	2	6	270	0.00	29.998 
12:10	76.7	76.7	78.4	50	56.6	2	4	270	0.00	29.998 
12:15	76.8	76.8	78.5	51	57.3	2	4	248	0.00	29.997 
12:20	76.7	76.7	78.4	51	57.2	2	5	270	0.00	29.997 
12:25	76.8	76.8	78.5	53	58.4	2	4	270	0.00	29.997 
12:30	77.2	77.2	78.8	52	58.2	2	5	248	0.00	29.990 
12:35	77.2	77.2	78.7	51	57.6	2	4	270	0.00	29.990 
12:40	77.0	77.0	78.6	51	57.5	2	4	270	0.00	29.990 
12:45	76.8	76.8	78.6	54	58.9	1	4	292	0.00	29.988 
12:50	76.8	76.8	78.5	51	57.3	1	4	292	0.00	29.988 
12:55	77.2	77.2	78.7	51	57.6	1	3	248	0.00	29.988 
13:00	77.0	77.0	78.5	48	55.8	1	3	225	0.00	29.985 
13:05	76.7	76.7	78.4	51	57.2	1	2	225	0.00	29.985 
13:10	76.7	76.7	78.4	51	57.2	1	3	270	0.00	29.985 
13:15	76.7	76.7	78.4	50	56.6	1	5	248	0.00	29.980 
13:20	77.2	77.2	78.7	49	56.5	1	4	270	0.00	29.980 
13:25	77.2	77.2	78.6	46	54.8	2	4	248	0.00	29.980 
13:30	76.8	76.8	78.4	47	55.0	1	4	248	0.00	29.973 
13:35	76.7	76.7	78.4	49	56.1	1	4	292	0.00	29.973 
13:40	76.5	76.5	78.3	49	55.9	1	4	248	0.00	29.973 
13:45	77.0	77.0	78.5	48	55.8	1	5	270	0.00	29.966 
13:50	77.7	77.7	79.0	50	57.6	0	3	270	0.00	29.966 
13:55	78.5	78.5	79.6	50	58.3	1	3	248	0.00	29.966 
14:00	78.8	78.8	79.4	43	54.4	2	4	270	0.00	29.963 
14:05	78.8	78.8	79.4	43	54.4	2	7	270	0.00	29.963 
14:10	78.6	78.6	79.2	42	53.6	2	6	270	0.00	29.963 
14:15	78.3	78.3	79.2	46	55.8	1	4	270	0.00	29.959 
14:20	78.6	78.6	79.4	46	56.1	2	5	270	0.00	29.959 
14:25	78.6	78.6	79.4	46	56.1	3	6	270	0.00	29.959 
14:30	78.3	78.3	79.2	45	55.2	2	4	248	0.00	29.960 
14:35	77.7	77.7	78.8	45	54.6	2	6	270	0.00	29.960 
14:40	77.4	77.4	78.7	46	55.0	2	6	270	0.00	29.960 
14:45	77.4	77.4	78.7	47	55.6	2	5	248	0.00	29.960 
14:50	77.4	77.4	78.7	46	55.0	1	4	270	0.00	29.960 
14:55	77.4	77.4	78.8	48	56.1	1	4	270	0.00	29.960 
15:00	77.2	77.2	78.7	49	56.5	1	4	270	0.00	29.960 
15:05	77.4	77.4	78.8	49	56.7	1	3	270	0.00	29.960 
15:10	77.6	77.6	78.9	48	56.3	2	5	270	0.00	29.960 
15:15	77.6	77.6	78.8	47	55.8	2	5	270	0.00	29.957 
15:20	77.6	77.6	78.9	48	56.3	1	4	248	0.00	29.957 
15:25	77.6	77.6	78.9	48	56.3	1	4	248	0.00	29.957 
15:30	77.6	77.6	78.8	47	55.8	1	6	248	0.00	29.954 
15:35	77.4	77.4	78.7	46	55.0	2	5	270	0.00	29.954 
15:40	77.4	77.4	78.8	49	56.7	1	9	270	0.00	29.954 
15:45	77.4	77.4	78.7	46	55.0	1	4	270	0.00	29.956 
15:50	77.2	77.2	78.6	47	55.4	1	4	270	0.00	29.956 
15:55	77.0	77.0	78.5	46	54.6	2	4	270	0.00	29.956 
16:00	76.7	76.7	78.3	46	54.3	2	4	270	0.00	29.953 
16:05	76.7	76.7	78.3	46	54.3	2	5	270	0.00	29.953 
16:10	76.7	76.7	78.3	46	54.3	1	4	270	0.00	29.953 
16:15	76.7	76.7	78.4	47	54.9	1	4	248	0.00	29.947 
16:20	76.8	76.8	78.4	48	55.6	1	4	248	0.00	29.947 
16:25	76.8	76.8	78.4	48	55.6	1	5	270	0.00	29.947 
16:30	77.0	77.0	78.5	48	55.8	2	5	270	0.00	29.943 
16:35	77.0	77.0	78.6	49	56.4	1	3	270	0.00	29.943 
16:40	77.0	77.0	78.5	47	55.2	1	4	270	0.00	29.943 
16:45	77.0	77.0	78.6	50	56.9	0	3	248	0.00	29.939 
16:50	77.2	77.2	78.7	49	56.5	1	4	292	0.00	29.939 
16:55	77.0	77.0	78.5	47	55.2	1	4	248	0.00	29.939 
17:00	76.7	76.7	78.4	47	54.9	1	4	292	0.00	29.932 
17:05	76.5	76.5	78.3	48	55.3	1	4	270	0.00	29.932 
17:10	76.5	76.5	78.3	49	55.9	1	3	270	0.00	29.932 
17:15	76.3	76.3	78.2	49	55.7	2	4	248	0.00	29.937 
17:20	76.3	76.3	78.2	49	55.7	2	6	248	0.00	29.937 
17:25	76.1	76.1	78.1	50	56.1	2	4	248	0.00	29.937 
17:30	76.1	76.1	78.1	50	56.1	1	5	292	0.00	29.935 
17:35	76.1	76.1	78.1	51	56.6	1	4	270	0.00	29.935 
17:40	76.0	76.0	78.1	49	55.4	2	5	270	0.00	29.935 
17:45	76.0	76.0	78.1	50	56.0	1	4	270	0.00	29.934 
17:50	76.0	76.0	78.1	50	56.0	1	4	270	0.00	29.934 
17:55	76.1	76.1	78.1	50	56.1	1	5	270	0.00	29.934 
18:00	76.1	76.1	78.1	49	55.5	2	10	248	0.00	29.934 
18:05	76.0	76.0	78.1	49	55.4	2	5	270	0.00	29.934 
18:10	76.0	76.0	78.1	50	56.0	1	3	248	0.00	29.934 
18:15	75.6	75.6	77.9	50	55.6	1	4	248	0.00	29.933 
18:20	75.4	75.4	77.8	50	55.4	1	5	248	0.00	29.933 
18:25	75.4	75.4	77.8	50	55.4	1	4	270	0.00	29.933 
18:30	75.3	75.3	77.7	50	55.4	1	4	270	0.00	29.935 
18:35	75.3	75.3	77.7	51	55.9	0	1	248	0.00	29.935 
18:40	75.1	75.1	77.7	51	55.7	1	3	248	0.00	29.935 
18:45	75.1	75.1	77.6	52	56.3	0	2	248	0.00	29.932 
18:50	74.9	74.9	74.9	52	56.1	1	3	248	0.00	29.932 
18:55	74.7	74.7	74.7	52	55.9	0	2	0	0.00	29.932 
19:00	74.6	74.6	74.6	52	55.8	1	2	0	0.00	29.927 
19:05	74.6	74.6	74.6	52	55.8	1	4	248	0.00	29.927 
19:10	74.4	74.4	74.4	53	56.1	1	4	248	0.00	29.927 
19:15	74.0	74.0	74.0	54	56.3	1	2	315	0.00	29.922 
19:20	73.9	73.9	73.9	58	58.2	0	1	315	0.00	29.922 
19:25	73.5	73.5	73.5	57	57.3	0	2	315	0.00	29.922 
19:30	73.3	73.3	73.3	57	57.1	1	2	315	0.00	29.920 
19:35	73.2	73.2	73.2	57	57.0	0	1	202	0.00	29.920 
19:40	73.2	73.2	73.2	56	56.5	0	3	248	0.00	29.920 
19:45	73.2	73.2	73.2	57	57.0	0	2	248	0.00	29.915 
19:50	73.0	73.0	73.0	57	56.9	0	1	248	0.00	29.915 
19:55	73.0	73.0	73.0	57	56.9	0	3	248	0.00	29.915 
20:00	73.0	73.0	73.0	58	57.3	0	1	248	0.00	29.917 
20:05	73.0	73.0	73.0	58	57.3	0	1	248	0.00	29.917 
20:10	72.8	72.8	72.8	58	57.1	0	0	---	0.00	29.917 
20:15	72.7	72.7	72.7	57	56.6	0	1	248	0.00	29.908 
20:20	72.7	72.7	72.7	57	56.6	0	1	248	0.00	29.908 
20:25	72.5	72.5	72.5	58	56.9	0	1	248	0.00	29.908 
20:30	72.5	72.5	72.5	59	57.3	0	0	---	0.00	29.907 
20:35	72.3	72.3	72.3	59	57.2	0	0	---	0.00	29.907 
20:40	72.3	72.3	72.3	60	57.6	0	0	---	0.00	29.907 
20:45	72.1	72.1	72.1	64	59.2	0	0	---	0.00	29.910 
20:50	72.0	72.0	72.0	64	59.1	0	0	---	0.00	29.910 
20:55	71.8	71.8	71.8	65	59.4	0	0	---	0.00	29.910 
21:00	71.5	71.5	71.5	65	59.1	0	0	---	0.00	29.907 
21:05	71.3	71.3	71.3	66	59.3	0	0	---	0.00	29.907 
21:10	71.1	71.1	71.1	67	59.6	0	0	---	0.00	29.907 
21:15	70.9	70.9	70.9	68	59.8	0	0	---	0.00	29.904 
21:20	70.8	70.8	70.8	68	59.7	0	0	---	0.00	29.904 
21:25	70.6	70.6	70.6	69	59.9	0	0	---	0.00	29.904 
21:30	70.4	70.4	70.4	69	59.7	0	0	---	0.00	29.903 
21:35	70.3	70.3	70.3	68	59.2	0	0	---	0.00	29.903 
21:40	70.3	70.3	70.3	69	59.6	0	0	---	0.00	29.903 
21:45	70.1	70.1	70.1	69	59.4	0	0	---	0.00	29.907 
21:50	70.1	70.1	70.1	68	59.0	0	0	---	0.00	29.907 
21:55	69.9	69.9	69.9	67	58.4	0	0	---	0.00	29.907 
22:00	69.9	69.9	69.9	68	58.8	0	0	---	0.00	29.907 
22:05	69.9	69.9	69.9	67	58.4	0	0	---	0.00	29.907 
22:10	69.8	69.8	69.8	67	58.3	0	0	---	0.00	29.907 
22:15	69.8	69.8	69.8	67	58.3	0	0	---	0.00	29.903 
22:20	69.8	69.8	69.8	68	58.7	0	0	---	0.00	29.903 
22:25	69.6	69.6	69.6	68	58.6	0	0	---	0.00	29.903 
22:30	69.6	69.6	69.6	68	58.6	0	0	---	0.00	29.903 
22:35	69.6	69.6	69.6	69	59.0	0	0	---	0.00	29.903 
22:40	69.4	69.4	69.4	69	58.8	0	0	---	0.00	29.903 
22:45	69.4	69.4	69.4	70	59.2	0	0	---	0.00	29.905 
22:50	69.4	69.4	69.4	70	59.2	0	0	---	0.00	29.905 
22:55	69.4	69.4	69.4	70	59.2	0	0	---	0.00	29.905 
23:00	69.3	69.3	69.3	71	59.5	0	0	---	0.00	29.906 
23:05	69.3	69.3	69.3	71	59.5	0	0	---	0.00	29.906 
23:10	69.3	69.3	69.3	71	59.5	0	0	---	0.00	29.906 
23:15	69.3	69.3	69.3	71	59.5	0	0	---	0.00	29.905 
23:20	69.3	69.3	69.3	71	59.5	0	0	---	0.00	29.905 
23:25	69.3	69.3	69.3	72	59.9	0	0	---	0.00	29.905 
23:30	69.3	69.3	69.3	73	60.3	0	0	---	0.00	29.908 
23:35	69.3	69.3	69.3	73	60.3	0	0	---	0.00	29.908 
23:40	69.4	69.4	69.4	74	60.7	0	1	248	0.00	29.908 
23:45	69.3	69.3	69.3	75	61.0	0	3	315	0.00	29.918 
23:50	68.8	68.8	68.8	77	61.3	1	3	292	0.00	29.918 
23:55	68.6	68.6	68.6	79	61.8	0	1	292	0.00	29.918 

CoCoRaHS
IN-AL-39
A2 Web Hosting
Creative Commons License
GoDaddy
search engine by freefind advanced

loaded 2018-11-14 04:09:43 • last modified 2010-11-18 10:43:29
Privacy PolicyDisclaimer
• wx.awcolley.com is powered by PmWiki v.2002016 •
• all content (unless otherwise noted) © 2018 A W Colley